sensor_id;sensor_type;location;lat;lon;timestamp;temperature;humidity
68276;DHT22;55106;51.438;-0.098;2022-09-12T00:00:09;14.19;97.26
68276;DHT22;55106;51.438;-0.098;2022-09-12T00:02:35;14.17;97.19
68276;DHT22;55106;51.438;-0.098;2022-09-12T00:05:00;14.15;97.24
68276;DHT22;55106;51.438;-0.098;2022-09-12T00:07:26;14.22;97.48
68276;DHT22;55106;51.438;-0.098;2022-09-12T00:09:51;14.15;97.31
68276;DHT22;55106;51.438;-0.098;2022-09-12T00:12:17;14.11;97.37
68276;DHT22;55106;51.438;-0.098;2022-09-12T00:14:42;14.08;97.36
68276;DHT22;55106;51.438;-0.098;2022-09-12T00:17:08;14.04;97.39
68276;DHT22;55106;51.438;-0.098;2022-09-12T00:19:33;14.01;97.42
68276;DHT22;55106;51.438;-0.098;2022-09-12T00:21:59;13.95;97.40
68276;DHT22;55106;51.438;-0.098;2022-09-12T00:24:24;13.92;97.38
68276;DHT22;55106;51.438;-0.098;2022-09-12T00:26:50;13.92;97.52
68276;DHT22;55106;51.438;-0.098;2022-09-12T00:29:20;13.88;97.55
68276;DHT22;55106;51.438;-0.098;2022-09-12T00:31:46;13.91;97.60
68276;DHT22;55106;51.438;-0.098;2022-09-12T00:34:12;13.94;97.54
68276;DHT22;55106;51.438;-0.098;2022-09-12T00:36:37;14.01;97.57
68276;DHT22;55106;51.438;-0.098;2022-09-12T00:39:03;14.12;97.54
68276;DHT22;55106;51.438;-0.098;2022-09-12T00:41:32;14.18;97.50
68276;DHT22;55106;51.438;-0.098;2022-09-12T00:44:01;14.28;97.51
68276;DHT22;55106;51.438;-0.098;2022-09-12T00:46:35;14.35;97.39
68276;DHT22;55106;51.438;-0.098;2022-09-12T00:49:23;14.39;97.34
68276;DHT22;55106;51.438;-0.098;2022-09-12T00:52:12;14.50;97.22
68276;DHT22;55106;51.438;-0.098;2022-09-12T00:55:01;14.59;97.22
68276;DHT22;55106;51.438;-0.098;2022-09-12T00:57:31;14.62;97.17
68276;DHT22;55106;51.438;-0.098;2022-09-12T01:00:02;14.70;97.16
68276;DHT22;55106;51.438;-0.098;2022-09-12T01:02:30;14.81;97.09
68276;DHT22;55106;51.438;-0.098;2022-09-12T01:04:56;14.87;97.06
68276;DHT22;55106;51.438;-0.098;2022-09-12T01:07:21;14.97;97.03
68276;DHT22;55106;51.438;-0.098;2022-09-12T01:09:48;15.01;97.06
68276;DHT22;55106;51.438;-0.098;2022-09-12T01:12:14;15.15;97.09
68276;DHT22;55106;51.438;-0.098;2022-09-12T01:14:41;15.27;96.96
68276;DHT22;55106;51.438;-0.098;2022-09-12T01:17:06;15.34;97.00
68276;DHT22;55106;51.438;-0.098;2022-09-12T01:19:48;15.39;96.97
68276;DHT22;55106;51.438;-0.098;2022-09-12T01:25:28;15.56;96.89
68276;DHT22;55106;51.438;-0.098;2022-09-12T01:34:12;15.72;96.72
68276;DHT22;55106;51.438;-0.098;2022-09-12T01:36:51;15.76;96.60
68276;DHT22;55106;51.438;-0.098;2022-09-12T01:44:57;15.93;96.34
68276;DHT22;55106;51.438;-0.098;2022-09-12T01:50:17;16.21;95.31
68276;DHT22;55106;51.438;-0.098;2022-09-12T01:52:59;16.48;94.08
68276;DHT22;55106;51.438;-0.098;2022-09-12T01:55:30;16.67;93.39
68276;DHT22;55106;51.438;-0.098;2022-09-12T01:58:07;16.69;93.16
68276;DHT22;55106;51.438;-0.098;2022-09-12T02:00:40;16.76;93.05
68276;DHT22;55106;51.438;-0.098;2022-09-12T02:03:11;16.80;92.89
68276;DHT22;55106;51.438;-0.098;2022-09-12T02:05:43;16.85;92.76
68276;DHT22;55106;51.438;-0.098;2022-09-12T02:08:18;16.85;92.72
68276;DHT22;55106;51.438;-0.098;2022-09-12T02:11:08;16.92;92.51
68276;DHT22;55106;51.438;-0.098;2022-09-12T02:14:05;16.93;92.46
68276;DHT22;55106;51.438;-0.098;2022-09-12T02:16:44;16.92;92.57
68276;DHT22;55106;51.438;-0.098;2022-09-12T02:19:15;16.92;92.51
68276;DHT22;55106;51.438;-0.098;2022-09-12T02:21:45;16.98;92.53
68276;DHT22;55106;51.438;-0.098;2022-09-12T02:24:13;16.93;92.32
68276;DHT22;55106;51.438;-0.098;2022-09-12T02:26:51;16.96;92.23
68276;DHT22;55106;51.438;-0.098;2022-09-12T02:29:19;16.89;92.22
68276;DHT22;55106;51.438;-0.098;2022-09-12T02:31:58;16.80;92.45
68276;DHT22;55106;51.438;-0.098;2022-09-12T02:37:28;16.76;92.67
68276;DHT22;55106;51.438;-0.098;2022-09-12T02:39:56;16.78;92.61
68276;DHT22;55106;51.438;-0.098;2022-09-12T02:42:23;16.67;92.78
68276;DHT22;55106;51.438;-0.098;2022-09-12T02:44:50;16.61;93.01
68276;DHT22;55106;51.438;-0.098;2022-09-12T02:47:26;16.62;93.19
68276;DHT22;55106;51.438;-0.098;2022-09-12T02:49:53;16.72;92.76
68276;DHT22;55106;51.438;-0.098;2022-09-12T02:52:20;16.72;92.64
68276;DHT22;55106;51.438;-0.098;2022-09-12T02:54:46;16.73;92.61
68276;DHT22;55106;51.438;-0.098;2022-09-12T02:57:16;16.80;92.39
68276;DHT22;55106;51.438;-0.098;2022-09-12T02:59:43;16.90;91.95
68276;DHT22;55106;51.438;-0.098;2022-09-12T03:02:26;16.96;91.71
68276;DHT22;55106;51.438;-0.098;2022-09-12T03:20:44;17.06;91.39
68276;DHT22;55106;51.438;-0.098;2022-09-12T03:26:20;16.86;92.04
68276;DHT22;55106;51.438;-0.098;2022-09-12T03:28:47;16.95;91.83
68276;DHT22;55106;51.438;-0.098;2022-09-12T03:31:15;16.88;92.02
68276;DHT22;55106;51.438;-0.098;2022-09-12T03:33:41;16.89;92.10
68276;DHT22;55106;51.438;-0.098;2022-09-12T03:36:27;16.85;92.24
68276;DHT22;55106;51.438;-0.098;2022-09-12T03:38:53;16.86;92.19
68276;DHT22;55106;51.438;-0.098;2022-09-12T03:41:19;16.86;92.22
68276;DHT22;55106;51.438;-0.098;2022-09-12T03:43:45;16.89;92.27
68276;DHT22;55106;51.438;-0.098;2022-09-12T03:46:11;16.98;92.06
68276;DHT22;55106;51.438;-0.098;2022-09-12T03:48:37;16.98;91.97
68276;DHT22;55106;51.438;-0.098;2022-09-12T03:51:05;17.02;91.89
68276;DHT22;55106;51.438;-0.098;2022-09-12T03:53:32;16.93;92.18
68276;DHT22;55106;51.438;-0.098;2022-09-12T03:55:57;16.95;92.29
68276;DHT22;55106;51.438;-0.098;2022-09-12T03:58:23;17.06;91.98
68276;DHT22;55106;51.438;-0.098;2022-09-12T04:00:49;17.02;92.07
68276;DHT22;55106;51.438;-0.098;2022-09-12T04:03:15;17.02;92.31
68276;DHT22;55106;51.438;-0.098;2022-09-12T04:05:41;17.00;92.30
68276;DHT22;55106;51.438;-0.098;2022-09-12T04:08:06;16.99;92.28
68276;DHT22;55106;51.438;-0.098;2022-09-12T04:10:31;16.92;92.37
68276;DHT22;55106;51.438;-0.098;2022-09-12T04:12:57;16.89;92.75
68276;DHT22;55106;51.438;-0.098;2022-09-12T04:15:23;16.80;92.93
68276;DHT22;55106;51.438;-0.098;2022-09-12T04:17:48;16.75;93.00
68276;DHT22;55106;51.438;-0.098;2022-09-12T04:20:13;16.71;93.30
68276;DHT22;55106;51.438;-0.098;2022-09-12T04:22:39;16.65;93.50
68276;DHT22;55106;51.438;-0.098;2022-09-12T04:25:05;16.67;93.64
68276;DHT22;55106;51.438;-0.098;2022-09-12T04:27:31;16.61;93.54
68276;DHT22;55106;51.438;-0.098;2022-09-12T04:29:57;16.62;93.67
68276;DHT22;55106;51.438;-0.098;2022-09-12T04:32:22;16.69;93.56
68276;DHT22;55106;51.438;-0.098;2022-09-12T04:34:48;16.68;93.58
68276;DHT22;55106;51.438;-0.098;2022-09-12T04:37:13;16.67;93.60
68276;DHT22;55106;51.438;-0.098;2022-09-12T04:39:38;16.67;93.72
68276;DHT22;55106;51.438;-0.098;2022-09-12T04:42:05;16.68;93.69
68276;DHT22;55106;51.438;-0.098;2022-09-12T04:44:30;16.67;93.75
68276;DHT22;55106;51.438;-0.098;2022-09-12T04:46:56;16.61;93.88
68276;DHT22;55106;51.438;-0.098;2022-09-12T04:49:22;16.64;93.95
68276;DHT22;55106;51.438;-0.098;2022-09-12T04:51:48;16.64;93.95
68276;DHT22;55106;51.438;-0.098;2022-09-12T04:54:19;16.67;93.83
68276;DHT22;55106;51.438;-0.098;2022-09-12T04:56:47;16.62;93.89
68276;DHT22;55106;51.438;-0.098;2022-09-12T04:59:14;16.72;93.88
68276;DHT22;55106;51.438;-0.098;2022-09-12T05:01:41;16.67;93.92
68276;DHT22;55106;51.438;-0.098;2022-09-12T05:04:08;16.68;93.95
68276;DHT22;55106;51.438;-0.098;2022-09-12T05:06:35;16.67;93.96
68276;DHT22;55106;51.438;-0.098;2022-09-12T05:09:02;16.62;94.01
68276;DHT22;55106;51.438;-0.098;2022-09-12T05:11:31;16.55;94.32
68276;DHT22;55106;51.438;-0.098;2022-09-12T05:13:57;16.57;94.53
68276;DHT22;55106;51.438;-0.098;2022-09-12T05:16:23;16.54;94.31
68276;DHT22;55106;51.438;-0.098;2022-09-12T05:18:49;16.50;94.49
68276;DHT22;55106;51.438;-0.098;2022-09-12T05:21:18;16.47;94.86
68276;DHT22;55106;51.438;-0.098;2022-09-12T05:23:43;16.45;94.90
68276;DHT22;55106;51.438;-0.098;2022-09-12T05:26:15;16.48;94.92
68276;DHT22;55106;51.438;-0.098;2022-09-12T05:28:41;16.50;95.03
68276;DHT22;55106;51.438;-0.098;2022-09-12T05:31:11;16.51;94.82
68276;DHT22;55106;51.438;-0.098;2022-09-12T05:33:38;16.54;94.76
68276;DHT22;55106;51.438;-0.098;2022-09-12T05:36:06;16.51;94.88
68276;DHT22;55106;51.438;-0.098;2022-09-12T05:38:34;16.51;94.90
68276;DHT22;55106;51.438;-0.098;2022-09-12T05:41:04;16.54;94.87
68276;DHT22;55106;51.438;-0.098;2022-09-12T05:43:31;16.57;94.86
68276;DHT22;55106;51.438;-0.098;2022-09-12T05:46:02;16.57;94.91
68276;DHT22;55106;51.438;-0.098;2022-09-12T05:48:28;16.58;94.90
68276;DHT22;55106;51.438;-0.098;2022-09-12T05:51:05;16.62;94.92
68276;DHT22;55106;51.438;-0.098;2022-09-12T05:53:33;16.61;94.85
68276;DHT22;55106;51.438;-0.098;2022-09-12T05:56:13;16.71;94.59
68276;DHT22;55106;51.438;-0.098;2022-09-12T05:58:41;16.76;94.39
68276;DHT22;55106;51.438;-0.098;2022-09-12T06:01:09;16.79;94.29
68276;DHT22;55106;51.438;-0.098;2022-09-12T06:03:41;16.82;94.33
68276;DHT22;55106;51.438;-0.098;2022-09-12T06:06:08;16.90;94.14
68276;DHT22;55106;51.438;-0.098;2022-09-12T06:08:34;17.05;93.89
68276;DHT22;55106;51.438;-0.098;2022-09-12T06:11:02;17.20;93.50
68276;DHT22;55106;51.438;-0.098;2022-09-12T06:13:30;17.23;93.31
68276;DHT22;55106;51.438;-0.098;2022-09-12T06:16:01;17.27;93.16
68276;DHT22;55106;51.438;-0.098;2022-09-12T06:18:27;17.31;93.10
68276;DHT22;55106;51.438;-0.098;2022-09-12T06:20:52;17.34;92.65
68276;DHT22;55106;51.438;-0.098;2022-09-12T06:23:17;17.50;92.33
68276;DHT22;55106;51.438;-0.098;2022-09-12T06:25:47;17.61;92.10
68276;DHT22;55106;51.438;-0.098;2022-09-12T06:28:14;17.79;91.83
68276;DHT22;55106;51.438;-0.098;2022-09-12T06:30:40;17.94;91.19
68276;DHT22;55106;51.438;-0.098;2022-09-12T06:33:06;18.02;90.65
68276;DHT22;55106;51.438;-0.098;2022-09-12T06:35:35;18.16;90.34
68276;DHT22;55106;51.438;-0.098;2022-09-12T06:38:00;18.26;89.89
68276;DHT22;55106;51.438;-0.098;2022-09-12T06:40:26;18.39;89.48
68276;DHT22;55106;51.438;-0.098;2022-09-12T06:42:52;18.51;89.39
68276;DHT22;55106;51.438;-0.098;2022-09-12T06:45:17;18.63;88.78
68276;DHT22;55106;51.438;-0.098;2022-09-12T06:47:44;18.68;88.64
68276;DHT22;55106;51.438;-0.098;2022-09-12T06:50:09;18.68;88.62
68276;DHT22;55106;51.438;-0.098;2022-09-12T06:52:35;18.59;88.71
68276;DHT22;55106;51.438;-0.098;2022-09-12T06:55:00;18.60;88.99
68276;DHT22;55106;51.438;-0.098;2022-09-12T06:57:26;18.61;88.94
68276;DHT22;55106;51.438;-0.098;2022-09-12T06:59:54;18.63;89.03
68276;DHT22;55106;51.438;-0.098;2022-09-12T07:02:20;18.63;88.96
68276;DHT22;55106;51.438;-0.098;2022-09-12T07:04:45;18.68;88.67
68276;DHT22;55106;51.438;-0.098;2022-09-12T07:07:11;18.72;88.86
68276;DHT22;55106;51.438;-0.098;2022-09-12T07:09:36;18.84;88.31
68276;DHT22;55106;51.438;-0.098;2022-09-12T07:12:02;18.89;88.28
68276;DHT22;55106;51.438;-0.098;2022-09-12T07:14:29;19.04;87.68
68276;DHT22;55106;51.438;-0.098;2022-09-12T07:16:54;19.20;87.57
68276;DHT22;55106;51.438;-0.098;2022-09-12T07:19:20;19.26;86.80
68276;DHT22;55106;51.438;-0.098;2022-09-12T07:21:45;19.46;86.77
68276;DHT22;55106;51.438;-0.098;2022-09-12T07:24:11;19.60;86.52
68276;DHT22;55106;51.438;-0.098;2022-09-12T07:26:37;19.69;85.65
68276;DHT22;55106;51.438;-0.098;2022-09-12T07:29:04;19.74;85.73
68276;DHT22;55106;51.438;-0.098;2022-09-12T07:31:29;19.76;86.41
68276;DHT22;55106;51.438;-0.098;2022-09-12T07:33:55;19.71;85.75
68276;DHT22;55106;51.438;-0.098;2022-09-12T07:36:22;19.70;85.50
68276;DHT22;55106;51.438;-0.098;2022-09-12T07:38:53;19.80;85.63
68276;DHT22;55106;51.438;-0.098;2022-09-12T07:41:22;19.76;85.61
68276;DHT22;55106;51.438;-0.098;2022-09-12T07:43:50;19.80;85.32
68276;DHT22;55106;51.438;-0.098;2022-09-12T07:46:16;19.91;84.80
68276;DHT22;55106;51.438;-0.098;2022-09-12T07:48:41;20.00;84.66
68276;DHT22;55106;51.438;-0.098;2022-09-12T07:51:08;20.04;84.30
68276;DHT22;55106;51.438;-0.098;2022-09-12T07:53:36;20.17;84.35
68276;DHT22;55106;51.438;-0.098;2022-09-12T07:56:03;20.28;83.47
68276;DHT22;55106;51.438;-0.098;2022-09-12T07:58:30;20.55;83.30
68276;DHT22;55106;51.438;-0.098;2022-09-12T08:01:13;20.70;82.32
68276;DHT22;55106;51.438;-0.098;2022-09-12T08:03:39;20.72;82.77
68276;DHT22;55106;51.438;-0.098;2022-09-12T08:06:14;20.80;82.20
68276;DHT22;55106;51.438;-0.098;2022-09-12T08:08:40;20.77;81.74
68276;DHT22;55106;51.438;-0.098;2022-09-12T08:11:08;20.69;81.62
68276;DHT22;55106;51.438;-0.098;2022-09-12T08:13:35;20.73;81.63
68276;DHT22;55106;51.438;-0.098;2022-09-12T08:16:03;20.63;81.60
68276;DHT22;55106;51.438;-0.098;2022-09-12T08:18:30;20.66;82.03
68276;DHT22;55106;51.438;-0.098;2022-09-12T08:21:02;20.69;82.37
68276;DHT22;55106;51.438;-0.098;2022-09-12T08:23:28;20.66;81.39
68276;DHT22;55106;51.438;-0.098;2022-09-12T08:25:55;20.99;81.50
68276;DHT22;55106;51.438;-0.098;2022-09-12T08:28:20;21.28;80.53
68276;DHT22;55106;51.438;-0.098;2022-09-12T08:30:46;21.66;79.60
68276;DHT22;55106;51.438;-0.098;2022-09-12T08:33:11;21.86;78.33
68276;DHT22;55106;51.438;-0.098;2022-09-12T08:35:36;22.21;77.98
68276;DHT22;55106;51.438;-0.098;2022-09-12T08:38:02;22.44;76.93
68276;DHT22;55106;51.438;-0.098;2022-09-12T08:40:27;22.72;76.69
68276;DHT22;55106;51.438;-0.098;2022-09-12T08:43:07;22.47;76.03
68276;DHT22;55106;51.438;-0.098;2022-09-12T08:45:52;22.67;76.08
68276;DHT22;55106;51.438;-0.098;2022-09-12T08:48:19;22.85;74.98
68276;DHT22;55106;51.438;-0.098;2022-09-12T08:50:44;22.92;74.48
68276;DHT22;55106;51.438;-0.098;2022-09-12T08:53:17;22.58;75.81
68276;DHT22;55106;51.438;-0.098;2022-09-12T08:55:58;22.94;74.65
68276;DHT22;55106;51.438;-0.098;2022-09-12T08:58:27;23.15;74.48
68276;DHT22;55106;51.438;-0.098;2022-09-12T09:04:20;26.23;65.78
68276;DHT22;55106;51.438;-0.098;2022-09-12T09:07:14;27.26;63.28
68276;DHT22;55106;51.438;-0.098;2022-09-12T09:20:39;27.99;59.38
68276;DHT22;55106;51.438;-0.098;2022-09-12T09:31:22;26.62;61.92
68276;DHT22;55106;51.438;-0.098;2022-09-12T09:33:49;26.24;62.98
68276;DHT22;55106;51.438;-0.098;2022-09-12T09:42:26;25.35;65.99
68276;DHT22;55106;51.438;-0.098;2022-09-12T09:44:56;24.90;67.45
68276;DHT22;55106;51.438;-0.098;2022-09-12T09:47:23;24.91;67.26
68276;DHT22;55106;51.438;-0.098;2022-09-12T09:49:48;24.53;69.27
68276;DHT22;55106;51.438;-0.098;2022-09-12T09:52:16;24.46;68.94
68276;DHT22;55106;51.438;-0.098;2022-09-12T09:54:51;24.22;68.91
68276;DHT22;55106;51.438;-0.098;2022-09-12T10:05:44;27.31;61.05
68276;DHT22;55106;51.438;-0.098;2022-09-12T10:08:26;28.57;58.37
68276;DHT22;55106;51.438;-0.098;2022-09-12T10:11:16;28.37;57.15
68276;DHT22;55106;51.438;-0.098;2022-09-12T10:16:22;27.23;60.31
68276;DHT22;55106;51.438;-0.098;2022-09-12T10:18:50;28.04;56.34
68276;DHT22;55106;51.438;-0.098;2022-09-12T10:21:42;28.98;56.37
68276;DHT22;55106;51.438;-0.098;2022-09-12T10:24:23;28.77;55.71
68276;DHT22;55106;51.438;-0.098;2022-09-12T10:26:52;29.38;54.64
68276;DHT22;55106;51.438;-0.098;2022-09-12T10:29:31;28.61;55.22
68276;DHT22;55106;51.438;-0.098;2022-09-12T10:32:00;29.70;53.83
68276;DHT22;55106;51.438;-0.098;2022-09-12T10:34:29;30.21;52.19
68276;DHT22;55106;51.438;-0.098;2022-09-12T10:37:03;31.52;49.50
68276;DHT22;55106;51.438;-0.098;2022-09-12T10:39:29;31.81;50.03
68276;DHT22;55106;51.438;-0.098;2022-09-12T10:41:55;31.40;48.36
68276;DHT22;55106;51.438;-0.098;2022-09-12T10:44:27;30.97;48.49
68276;DHT22;55106;51.438;-0.098;2022-09-12T10:46:54;31.29;48.10
68276;DHT22;55106;51.438;-0.098;2022-09-12T10:49:30;30.35;50.34
68276;DHT22;55106;51.438;-0.098;2022-09-12T10:51:57;29.58;52.69
68276;DHT22;55106;51.438;-0.098;2022-09-12T10:54:40;29.21;53.75
68276;DHT22;55106;51.438;-0.098;2022-09-12T10:59:57;28.94;54.15
68276;DHT22;55106;51.438;-0.098;2022-09-12T11:02:39;28.68;55.23
68276;DHT22;55106;51.438;-0.098;2022-09-12T11:07:44;28.73;54.06
68276;DHT22;55106;51.438;-0.098;2022-09-12T11:10:37;28.42;53.73
68276;DHT22;55106;51.438;-0.098;2022-09-12T11:13:51;27.85;56.47
68276;DHT22;55106;51.438;-0.098;2022-09-12T11:19:35;27.65;54.70
68276;DHT22;55106;51.438;-0.098;2022-09-12T11:27:51;28.33;55.09
68276;DHT22;55106;51.438;-0.098;2022-09-12T11:30:20;28.90;54.28
68276;DHT22;55106;51.438;-0.098;2022-09-12T11:35:50;28.71;54.03
68276;DHT22;55106;51.438;-0.098;2022-09-12T11:41:02;28.40;53.50
68276;DHT22;55106;51.438;-0.098;2022-09-12T11:43:49;28.54;52.76
68276;DHT22;55106;51.438;-0.098;2022-09-12T11:46:36;27.89;55.97
68276;DHT22;55106;51.438;-0.098;2022-09-12T11:52:16;28.27;55.21
68276;DHT22;55106;51.438;-0.098;2022-09-12T11:57:40;29.01;52.37
68276;DHT22;55106;51.438;-0.098;2022-09-12T12:00:22;28.47;54.12
68276;DHT22;55106;51.438;-0.098;2022-09-12T12:02:59;27.54;56.59
68276;DHT22;55106;51.438;-0.098;2022-09-12T12:05:43;26.78;58.82
68276;DHT22;55106;51.438;-0.098;2022-09-12T12:08:12;26.59;59.69
68276;DHT22;55106;51.438;-0.098;2022-09-12T12:10:57;27.03;60.29
68276;DHT22;55106;51.438;-0.098;2022-09-12T12:13:51;27.50;58.12
68276;DHT22;55106;51.438;-0.098;2022-09-12T12:16:23;29.04;54.72
68276;DHT22;55106;51.438;-0.098;2022-09-12T12:21:43;30.63;49.53
68276;DHT22;55106;51.438;-0.098;2022-09-12T12:24:24;29.28;51.28
68276;DHT22;55106;51.438;-0.098;2022-09-12T12:34:42;27.20;57.84
68276;DHT22;55106;51.438;-0.098;2022-09-12T12:52:48;26.13;56.59
68276;DHT22;55106;51.438;-0.098;2022-09-12T12:55:22;26.48;56.22
68276;DHT22;55106;51.438;-0.098;2022-09-12T12:57:51;26.62;57.38
68276;DHT22;55106;51.438;-0.098;2022-09-12T13:00:27;26.83;58.33
68276;DHT22;55106;51.438;-0.098;2022-09-12T13:08:25;26.47;56.17
68276;DHT22;55106;51.438;-0.098;2022-09-12T13:11:04;26.21;56.03
68276;DHT22;55106;51.438;-0.098;2022-09-12T13:13:43;26.25;56.72
68276;DHT22;55106;51.438;-0.098;2022-09-12T13:16:11;26.33;56.61
68276;DHT22;55106;51.438;-0.098;2022-09-12T13:18:53;26.59;56.98
68276;DHT22;55106;51.438;-0.098;2022-09-12T13:21:19;26.69;57.13
68276;DHT22;55106;51.438;-0.098;2022-09-12T13:24:12;26.93;56.59
68276;DHT22;55106;51.438;-0.098;2022-09-12T13:26:42;26.99;56.96
68276;DHT22;55106;51.438;-0.098;2022-09-12T13:31:53;26.73;56.46
68276;DHT22;55106;51.438;-0.098;2022-09-12T13:34:28;26.63;59.09
68276;DHT22;55106;51.438;-0.098;2022-09-12T13:40:03;26.59;58.30
68276;DHT22;55106;51.438;-0.098;2022-09-12T13:42:38;26.47;58.29
68276;DHT22;55106;51.438;-0.098;2022-09-12T13:45:14;26.45;58.42
68276;DHT22;55106;51.438;-0.098;2022-09-12T13:47:44;26.45;58.55
68276;DHT22;55106;51.438;-0.098;2022-09-12T13:50:17;26.48;59.45
68276;DHT22;55106;51.438;-0.098;2022-09-12T13:52:47;26.17;59.98
68276;DHT22;55106;51.438;-0.098;2022-09-12T13:55:30;26.12;59.92
68276;DHT22;55106;51.438;-0.098;2022-09-12T13:58:14;26.21;60.50
68276;DHT22;55106;51.438;-0.098;2022-09-12T14:00:40;26.23;59.59
68276;DHT22;55106;51.438;-0.098;2022-09-12T14:06:22;26.16;58.55
68276;DHT22;55106;51.438;-0.098;2022-09-12T14:08:52;26.21;56.91
68276;DHT22;55106;51.438;-0.098;2022-09-12T14:11:26;26.21;57.91
68276;DHT22;55106;51.438;-0.098;2022-09-12T14:13:52;26.16;57.47
68276;DHT22;55106;51.438;-0.098;2022-09-12T14:16:20;26.01;58.19
68276;DHT22;55106;51.438;-0.098;2022-09-12T14:18:48;25.77;56.82
68276;DHT22;55106;51.438;-0.098;2022-09-12T14:23:45;25.56;60.04
68276;DHT22;55106;51.438;-0.098;2022-09-12T14:26:14;25.50;60.56
68276;DHT22;55106;51.438;-0.098;2022-09-12T14:28:43;25.58;59.10
68276;DHT22;55106;51.438;-0.098;2022-09-12T14:36:26;26.06;57.49
68276;DHT22;55106;51.438;-0.098;2022-09-12T14:38:57;26.12;57.70
68276;DHT22;55106;51.438;-0.098;2022-09-12T14:41:26;26.10;58.17
68276;DHT22;55106;51.438;-0.098;2022-09-12T14:43:56;26.14;57.60
68276;DHT22;55106;51.438;-0.098;2022-09-12T14:46:36;26.24;58.01
68276;DHT22;55106;51.438;-0.098;2022-09-12T14:54:34;26.28;57.53
68276;DHT22;55106;51.438;-0.098;2022-09-12T14:57:43;26.23;58.70
68276;DHT22;55106;51.438;-0.098;2022-09-12T14:59:49;26.16;58.23
68276;DHT22;55106;51.438;-0.098;2022-09-12T15:04:49;25.80;58.56
68276;DHT22;55106;51.438;-0.098;2022-09-12T15:08:12;25.76;59.75
68276;DHT22;55106;51.438;-0.098;2022-09-12T15:13:09;25.65;59.71
68276;DHT22;55106;51.438;-0.098;2022-09-12T15:15:42;25.61;58.97
68276;DHT22;55106;51.438;-0.098;2022-09-12T15:18:07;25.55;59.07
68276;DHT22;55106;51.438;-0.098;2022-09-12T15:20:35;25.48;59.89
68276;DHT22;55106;51.438;-0.098;2022-09-12T15:23:01;25.46;59.51
68276;DHT22;55106;51.438;-0.098;2022-09-12T15:25:27;25.52;59.39
68276;DHT22;55106;51.438;-0.098;2022-09-12T15:27:52;25.61;59.97
68276;DHT22;55106;51.438;-0.098;2022-09-12T15:30:20;25.49;59.75
68276;DHT22;55106;51.438;-0.098;2022-09-12T15:32:45;25.49;59.26
68276;DHT22;55106;51.438;-0.098;2022-09-12T15:35:21;25.46;58.71
68276;DHT22;55106;51.438;-0.098;2022-09-12T15:37:48;25.42;59.99
68276;DHT22;55106;51.438;-0.098;2022-09-12T15:40:14;25.29;59.54
68276;DHT22;55106;51.438;-0.098;2022-09-12T15:42:40;25.24;60.29
68276;DHT22;55106;51.438;-0.098;2022-09-12T15:45:18;25.06;60.87
68276;DHT22;55106;51.438;-0.098;2022-09-12T15:47:44;25.01;60.37
68276;DHT22;55106;51.438;-0.098;2022-09-12T15:50:10;25.03;60.82
68276;DHT22;55106;51.438;-0.098;2022-09-12T15:52:37;25.07;60.91
68276;DHT22;55106;51.438;-0.098;2022-09-12T15:55:04;24.95;61.63
68276;DHT22;55106;51.438;-0.098;2022-09-12T15:57:30;24.94;61.40
68276;DHT22;55106;51.438;-0.098;2022-09-12T15:59:55;24.77;60.70
68276;DHT22;55106;51.438;-0.098;2022-09-12T16:02:20;24.67;62.38
68276;DHT22;55106;51.438;-0.098;2022-09-12T16:04:46;24.56;62.34
68276;DHT22;55106;51.438;-0.098;2022-09-12T16:07:12;24.46;62.15
68276;DHT22;55106;51.438;-0.098;2022-09-12T16:09:38;24.37;62.53
68276;DHT22;55106;51.438;-0.098;2022-09-12T16:12:03;24.32;63.36
68276;DHT22;55106;51.438;-0.098;2022-09-12T16:14:28;24.26;63.43
68276;DHT22;55106;51.438;-0.098;2022-09-12T16:16:54;24.22;61.89
68276;DHT22;55106;51.438;-0.098;2022-09-12T16:19:20;24.24;62.18
68276;DHT22;55106;51.438;-0.098;2022-09-12T16:21:45;24.24;61.51
68276;DHT22;55106;51.438;-0.098;2022-09-12T16:24:11;24.26;61.95
68276;DHT22;55106;51.438;-0.098;2022-09-12T16:26:36;24.28;61.71
68276;DHT22;55106;51.438;-0.098;2022-09-12T16:29:02;24.28;62.62
68276;DHT22;55106;51.438;-0.098;2022-09-12T16:31:27;24.35;62.12
68276;DHT22;55106;51.438;-0.098;2022-09-12T16:33:53;24.35;62.01
68276;DHT22;55106;51.438;-0.098;2022-09-12T16:36:20;24.33;61.57
68276;DHT22;55106;51.438;-0.098;2022-09-12T16:38:48;24.40;61.10
68276;DHT22;55106;51.438;-0.098;2022-09-12T16:41:14;24.37;61.21
68276;DHT22;55106;51.438;-0.098;2022-09-12T16:43:41;24.35;60.60
68276;DHT22;55106;51.438;-0.098;2022-09-12T16:46:09;24.28;61.48
68276;DHT22;55106;51.438;-0.098;2022-09-12T16:48:36;24.25;61.53
68276;DHT22;55106;51.438;-0.098;2022-09-12T16:51:04;24.12;62.71
68276;DHT22;55106;51.438;-0.098;2022-09-12T16:53:31;23.95;63.10
68276;DHT22;55106;51.438;-0.098;2022-09-12T16:55:56;23.84;63.19
68276;DHT22;55106;51.438;-0.098;2022-09-12T16:58:21;23.73;63.66
68276;DHT22;55106;51.438;-0.098;2022-09-12T17:00:47;23.58;64.12
68276;DHT22;55106;51.438;-0.098;2022-09-12T17:03:12;23.43;64.31
68276;DHT22;55106;51.438;-0.098;2022-09-12T17:05:38;23.30;64.67
68276;DHT22;55106;51.438;-0.098;2022-09-12T17:08:03;23.20;64.10
68276;DHT22;55106;51.438;-0.098;2022-09-12T17:10:29;23.08;65.93
68276;DHT22;55106;51.438;-0.098;2022-09-12T17:12:55;22.87;66.28
68276;DHT22;55106;51.438;-0.098;2022-09-12T17:15:21;22.72;66.51
68276;DHT22;55106;51.438;-0.098;2022-09-12T17:17:47;22.60;67.31
68276;DHT22;55106;51.438;-0.098;2022-09-12T17:20:12;22.53;67.87
68276;DHT22;55106;51.438;-0.098;2022-09-12T17:22:39;22.44;68.26
68276;DHT22;55106;51.438;-0.098;2022-09-12T17:25:04;22.41;67.57
68276;DHT22;55106;51.438;-0.098;2022-09-12T17:27:30;22.39;68.40
68276;DHT22;55106;51.438;-0.098;2022-09-12T17:29:56;22.30;68.05
68276;DHT22;55106;51.438;-0.098;2022-09-12T17:32:21;22.30;68.05
68276;DHT22;55106;51.438;-0.098;2022-09-12T17:34:46;22.27;67.20
68276;DHT22;55106;51.438;-0.098;2022-09-12T17:37:12;22.30;67.58
68276;DHT22;55106;51.438;-0.098;2022-09-12T17:39:38;22.24;69.45
68276;DHT22;55106;51.438;-0.098;2022-09-12T17:42:04;22.17;68.92
68276;DHT22;55106;51.438;-0.098;2022-09-12T17:44:32;22.13;68.96
68276;DHT22;55106;51.438;-0.098;2022-09-12T17:47:00;22.10;68.96
68276;DHT22;55106;51.438;-0.098;2022-09-12T17:49:26;22.05;69.90
68276;DHT22;55106;51.438;-0.098;2022-09-12T17:51:51;21.97;69.43
68276;DHT22;55106;51.438;-0.098;2022-09-12T17:54:17;21.92;69.96
68276;DHT22;55106;51.438;-0.098;2022-09-12T17:56:45;21.86;70.27
68276;DHT22;55106;51.438;-0.098;2022-09-12T17:59:16;21.82;70.31
68276;DHT22;55106;51.438;-0.098;2022-09-12T18:01:42;21.74;70.91
68276;DHT22;55106;51.438;-0.098;2022-09-12T18:04:26;21.66;69.57
68276;DHT22;55106;51.438;-0.098;2022-09-12T18:06:52;21.65;69.71
68276;DHT22;55106;51.438;-0.098;2022-09-12T18:09:20;21.59;69.33
68276;DHT22;55106;51.438;-0.098;2022-09-12T18:11:47;21.59;69.55
68276;DHT22;55106;51.438;-0.098;2022-09-12T18:14:13;21.54;69.83